Time;durP1;ratioP1;P1;durP2;ratioP2;P2;SDS_P1;SDS_P2;PMS_P1;PMS_P2;Temp;Humidity;BMP_temperature;BMP_pressure;BME280_temperature;BME280_humidity;BME280_pressure;Samples;Min_cycle;Max_cycle;Signal;HPM_P1;HPM_P2
2021/12/27 00:00:14;;;;;;;22.65;10.80;;;;;;;4.96;82.58;94234.53;5011681;28;20236;-71
2021/12/27 00:02:42;;;;;;;23.23;11.77;;;;;;;4.83;83.25;94230.00;5012022;28;20185;-72
2021/12/27 00:05:10;;;;;;;27.08;11.93;;;;;;;4.95;83.15;94242.88;5011939;28;20201;-71
2021/12/27 00:07:37;;;;;;;24.77;10.73;;;;;;;5.00;83.05;94230.16;5011804;28;20201;-72
2021/12/27 00:10:06;;;;;;;33.70;16.17;;;;;;;4.97;82.71;94222.72;5012125;28;20209;-72
2021/12/27 00:12:34;;;;;;;28.85;13.25;;;;;;;4.83;83.34;94230.00;5012158;28;20205;-71
2021/12/27 00:15:01;;;;;;;31.40;14.95;;;;;;;4.80;83.36;94241.31;5011588;28;20216;-72
2021/12/27 00:17:28;;;;;;;29.23;13.48;;;;;;;4.86;83.32;94229.41;5011477;28;20208;-72
2021/12/27 00:19:56;;;;;;;18.35;9.85;;;;;;;4.72;83.30;94228.63;5011367;28;20236;-72
2021/12/27 00:22:23;;;;;;;30.08;14.88;;;;;;;4.56;84.17;94221.97;5011477;28;20221;-72
2021/12/27 00:24:50;;;;;;;32.65;16.02;;;;;;;4.69;84.38;94223.06;5011220;28;20676;-72
2021/12/27 00:27:19;;;;;;;34.28;14.45;;;;;;;4.69;84.29;94221.19;5011021;28;20205;-72
2021/12/27 00:29:47;;;;;;;26.95;11.43;;;;;;;4.78;83.29;94211.34;5011433;28;20591;-72
2021/12/27 00:32:14;;;;;;;23.50;11.80;;;;;;;4.78;84.16;94218.59;5011336;28;20201;-72
2021/12/27 00:34:41;;;;;;;16.77;9.35;;;;;;;4.61;84.28;94232.63;5011186;28;20216;-72
2021/12/27 00:37:09;;;;;;;18.52;9.88;;;;;;;4.42;84.59;94222.00;5011253;28;20257;-72
2021/12/27 00:39:37;;;;;;;21.55;11.35;;;;;;;4.45;85.12;94223.28;5011037;28;20224;-71
2021/12/27 00:42:05;;;;;;;24.75;13.45;;;;;;;4.56;85.09;94221.97;5010940;28;20235;-71
2021/12/27 00:44:33;;;;;;;17.30;9.98;;;;;;;4.62;84.60;94228.84;5011291;28;20212;-72
2021/12/27 00:47:01;;;;;;;25.08;9.98;;;;;;;4.56;84.39;94216.63;5010238;28;20200;-71
2021/12/27 00:49:29;;;;;;;22.65;10.55;;;;;;;4.39;84.82;94225.25;5011140;28;20218;-72
2021/12/27 00:51:56;;;;;;;20.67;10.25;;;;;;;4.51;84.60;94235.50;5010744;28;20478;-71
2021/12/27 00:54:23;;;;;;;22.02;10.50;;;;;;;4.56;84.23;94230.03;5010187;28;20275;-72
2021/12/27 00:56:50;;;;;;;27.15;10.05;;;;;;;4.27;84.81;94228.44;5010841;28;20212;-72
2021/12/27 00:59:17;;;;;;;27.92;14.35;;;;;;;4.35;85.00;94231.53;5010119;28;20225;-72
2021/12/27 01:01:44;;;;;;;27.95;14.35;;;;;;;4.44;84.92;94243.16;5010715;28;20208;-72
2021/12/27 01:04:12;;;;;;;24.20;11.77;;;;;;;4.53;84.79;94246.72;5010534;28;20643;-72
2021/12/27 01:06:39;;;;;;;21.35;11.35;;;;;;;4.49;84.51;94251.09;5010560;28;20722;-71
2021/12/27 01:09:07;;;;;;;20.15;10.43;;;;;;;4.52;84.64;94239.75;5010675;28;20216;-71
2021/12/27 01:11:45;;;;;;;38.58;18.20;;;;;;;4.57;84.19;94226.25;5010567;28;20209;-71
2021/12/27 01:14:15;;;;;;;30.50;12.73;;;;;;;4.73;84.68;94224.84;5010371;28;20197;-71
2021/12/27 01:16:45;;;;;;;28.92;15.15;;;;;;;4.80;84.21;94229.78;5010329;28;20660;-71
2021/12/27 01:19:13;;;;;;;31.05;12.88;;;;;;;4.92;83.96;94238.91;5010203;28;20206;-71
2021/12/27 01:21:40;;;;;;;26.40;12.75;;;;;;;4.87;83.27;94220.25;5010520;28;20208;-72
2021/12/27 01:24:08;;;;;;;27.55;12.73;;;;;;;4.85;83.92;94216.28;5010491;28;20259;-71
2021/12/27 01:26:35;;;;;;;21.25;11.65;;;;;;;4.80;84.28;94222.53;5010552;28;20739;-72
2021/12/27 01:29:02;;;;;;;21.58;10.75;;;;;;;4.96;83.56;94223.81;5009991;28;20676;-72
2021/12/27 01:31:29;;;;;;;26.00;12.50;;;;;;;4.87;83.37;94209.53;5010500;28;20216;-72
2021/12/27 01:33:56;;;;;;;32.47;13.10;;;;;;;4.98;83.26;94199.34;5010342;28;20209;-72
2021/12/27 01:36:27;;;;;;;22.02;11.95;;;;;;;4.98;83.36;94220.81;5009858;28;20201;-72
2021/12/27 01:38:54;;;;;;;24.42;11.98;;;;;;;5.03;83.62;94211.88;5009581;28;20316;-72
2021/12/27 01:41:21;;;;;;;21.58;11.45;;;;;;;5.06;83.42;94208.59;5009246;28;20256;-71
2021/12/27 01:43:48;;;;;;;30.05;12.57;;;;;;;4.85;83.27;94214.41;5010103;28;20275;-72
2021/12/27 01:46:18;;;;;;;22.75;11.40;;;;;;;4.77;83.67;94220.47;5010152;28;20205;-71
2021/12/27 01:48:54;;;;;;;23.08;10.80;;;;;;;4.94;83.37;94204.53;5009317;28;20197;-72
2021/12/27 01:51:23;;;;;;;29.30;15.07;;;;;;;5.07;82.75;94192.16;5009460;28;20192;-72
2021/12/27 01:53:51;;;;;;;26.55;13.23;;;;;;;4.94;83.08;94183.06;5009321;28;20220;-72
2021/12/27 01:56:21;;;;;;;27.77;12.88;;;;;;;5.12;83.96;94188.56;5009407;28;20211;-72
2021/12/27 01:58:48;;;;;;;27.23;12.75;;;;;;;5.14;82.76;94203.28;5009514;28;20934;-72
2021/12/27 02:01:16;;;;;;;31.55;18.35;;;;;;;5.35;82.49;94204.38;5009558;28;20232;-72
2021/12/27 02:03:45;;;;;;;30.38;18.05;;;;;;;5.42;82.54;94201.28;5009368;28;20205;-71
2021/12/27 02:06:14;;;;;;;28.02;13.13;;;;;;;5.39;82.11;94199.19;5009739;28;20216;-71
2021/12/27 02:08:43;;;;;;;26.75;13.25;;;;;;;5.30;81.76;94190.31;5009213;28;20201;-71
2021/12/27 02:11:14;;;;;;;26.25;11.30;;;;;;;5.24;82.47;94180.75;5009704;28;20263;-71
2021/12/27 02:13:44;;;;;;;21.23;11.27;;;;;;;5.23;83.08;94189.91;5009449;28;20283;-71
2021/12/27 02:16:11;;;;;;;21.45;11.05;;;;;;;5.27;83.24;94193.59;5009610;28;20224;-71
2021/12/27 02:18:39;;;;;;;20.42;11.05;;;;;;;5.38;83.62;94186.88;5009621;28;20197;-72
2021/12/27 02:21:08;;;;;;;17.08;10.15;;;;;;;5.22;83.12;94173.00;5009140;28;20255;-72
2021/12/27 02:23:38;;;;;;;22.35;11.90;;;;;;;5.15;83.70;94171.88;5009425;28;20323;-72
2021/12/27 02:26:05;;;;;;;21.35;11.88;;;;;;;5.20;83.99;94185.16;5009519;28;20193;-72
2021/12/27 02:28:33;;;;;;;21.65;10.95;;;;;;;5.20;83.93;94190.53;5009267;28;20323;-72
2021/12/27 02:31:00;;;;;;;19.70;11.30;;;;;;;5.18;84.23;94182.78;5008707;28;20212;-72
2021/12/27 02:33:27;;;;;;;20.77;10.68;;;;;;;5.25;84.42;94176.97;5008847;28;20201;-71
2021/12/27 02:35:56;;;;;;;19.88;11.65;;;;;;;5.40;83.56;94173.94;5009190;28;20228;-71
2021/12/27 02:38:27;;;;;;;22.35;12.52;;;;;;;5.34;83.76;94167.88;5009029;28;20756;-72
2021/12/27 02:40:55;;;;;;;27.75;14.38;;;;;;;5.28;84.35;94160.28;5008739;28;20752;-71
2021/12/27 02:43:24;;;;;;;22.60;14.18;;;;;;;5.29;84.69;94159.97;5009114;28;20201;-71
2021/12/27 02:45:54;;;;;;;26.55;13.23;;;;;;;5.42;84.46;94152.94;5009078;28;20559;-71
2021/12/27 02:48:22;;;;;;;25.25;12.15;;;;;;;5.41;84.70;94154.03;5009331;28;20271;-71
2021/12/27 02:50:51;;;;;;;20.15;11.00;;;;;;;5.34;85.03;94148.28;5009012;28;20209;-71
2021/12/27 02:53:18;;;;;;;21.02;10.38;;;;;;;5.41;83.94;94164.78;5009147;28;20213;-71
2021/12/27 02:55:48;;;;;;;21.40;11.25;;;;;;;5.33;83.93;94162.81;5008808;28;20201;-71
2021/12/27 02:58:15;;;;;;;22.83;11.65;;;;;;;5.43;84.36;94167.97;5008578;28;20208;-71
2021/12/27 03:00:45;;;;;;;22.77;11.10;;;;;;;5.45;83.91;94160.38;5009217;28;20228;-72
2021/12/27 03:03:11;;;;;;;22.52;11.32;;;;;;;5.42;83.75;94166.38;5009190;28;20205;-71
2021/12/27 03:05:39;;;;;;;25.88;11.65;;;;;;;5.21;84.64;94159.88;5008926;28;20206;-71
2021/12/27 03:08:10;;;;;;;25.35;12.20;;;;;;;5.00;86.04;94171.13;5009246;28;20225;-72
2021/12/27 03:10:37;;;;;;;21.73;12.00;;;;;;;5.23;84.83;94157.69;5008880;28;21017;-71
2021/12/27 03:13:05;;;;;;;21.83;11.15;;;;;;;4.94;85.26;94150.84;5008938;28;20197;-72
2021/12/27 03:15:32;;;;;;;28.67;12.23;;;;;;;5.14;85.12;94154.97;5008793;28;20198;-72
2021/12/27 03:17:59;;;;;;;25.70;11.70;;;;;;;5.20;85.63;94158.31;5012530;28;20217;-72
2021/12/27 03:20:28;;;;;;;19.80;10.38;;;;;;;5.26;85.04;94155.19;5012455;28;20236;-72
2021/12/27 03:22:55;;;;;;;24.23;12.43;;;;;;;5.33;84.78;94157.44;5012366;28;20232;-72
2021/12/27 03:25:24;;;;;;;26.88;11.52;;;;;;;5.30;84.69;94168.81;5012399;28;20656;-72
2021/12/27 03:27:51;;;;;;;21.35;10.77;;;;;;;5.34;84.34;94149.09;5012592;28;20208;-72
2021/12/27 03:30:24;;;;;;;22.25;11.73;;;;;;;5.31;83.75;94143.56;5012279;28;20263;-72
2021/12/27 03:32:52;;;;;;;22.30;11.23;;;;;;;5.40;84.68;94136.34;5012562;28;20197;-72
2021/12/27 03:35:26;;;;;;;23.52;11.90;;;;;;;5.48;84.46;94138.28;5012861;28;20369;-72
2021/12/27 03:37:56;;;;;;;22.55;12.10;;;;;;;5.61;84.54;94136.59;5012512;28;20303;-71
2021/12/27 03:40:24;;;;;;;21.35;11.90;;;;;;;5.54;83.81;94126.31;5011976;28;20213;-72
2021/12/27 03:42:51;;;;;;;29.25;14.00;;;;;;;5.60;84.55;94130.44;5012160;28;20200;-71
2021/12/27 03:45:21;;;;;;;20.75;11.52;;;;;;;5.44;84.45;94126.56;5012051;28;20209;-71
2021/12/27 03:47:49;;;;;;;25.60;11.48;;;;;;;5.56;84.34;94124.09;5012280;28;20247;-71
2021/12/27 03:50:16;;;;;;;22.98;11.80;;;;;;;5.52;83.63;94122.34;5012035;28;20201;-71
2021/12/27 03:52:44;;;;;;;24.73;11.98;;;;;;;5.39;83.97;94113.25;5011622;28;20549;-71
2021/12/27 03:55:12;;;;;;;22.95;10.90;;;;;;;5.29;84.15;94102.78;5012019;28;20221;-71
2021/12/27 03:57:41;;;;;;;32.00;12.60;;;;;;;5.27;84.57;94126.47;5012016;28;20271;-71
2021/12/27 04:00:30;;;;;;;25.17;11.75;;;;;;;5.12;84.91;94124.94;5012035;28;20215;-72
2021/12/27 04:03:00;;;;;;;25.98;11.05;;;;;;;4.90;85.59;94117.69;5012117;28;20225;-72
2021/12/27 04:05:29;;;;;;;21.67;11.18;;;;;;;5.00;86.17;94133.53;5011727;28;20224;-72
2021/12/27 04:08:09;;;;;;;19.52;10.80;;;;;;;4.94;85.97;94133.94;5011955;28;20220;-72
2021/12/27 04:10:36;;;;;;;24.45;13.32;;;;;;;5.04;85.39;94132.94;5012047;28;20215;-72
2021/12/27 04:13:03;;;;;;;21.77;10.35;;;;;;;4.94;85.17;94129.38;5011296;28;20201;-71
2021/12/27 04:15:30;;;;;;;19.00;10.25;;;;;;;5.03;85.25;94136.72;5011395;28;20211;-71
2021/12/27 04:17:59;;;;;;;25.92;12.07;;;;;;;5.11;85.11;94144.81;5011454;28;20232;-71
2021/12/27 04:20:26;;;;;;;18.00;10.90;;;;;;;5.03;85.05;94147.47;5011187;28;20700;-71
2021/12/27 04:22:53;;;;;;;29.65;10.75;;;;;;;5.10;85.26;94147.81;5011315;28;20220;-71
2021/12/27 04:25:21;;;;;;;23.77;11.70;;;;;;;5.16;84.58;94151.97;5011060;28;20228;-71
2021/12/27 04:27:49;;;;;;;20.13;10.80;;;;;;;5.21;84.59;94149.16;5011468;28;20209;-72
2021/12/27 04:30:16;;;;;;;21.05;10.30;;;;;;;5.21;84.24;94138.41;5011236;28;20201;-71
2021/12/27 04:32:43;;;;;;;36.85;18.13;;;;;;;5.15;84.59;94139.66;5011326;28;20212;-72
2021/12/27 04:35:12;;;;;;;41.05;17.30;;;;;;;5.25;84.51;94139.41;5011288;28;20201;-71
2021/12/27 04:37:40;;;;;;;27.35;13.70;;;;;;;5.06;85.15;94141.50;5011134;28;20239;-72
2021/12/27 04:40:09;;;;;;;25.77;12.07;;;;;;;5.06;85.45;94153.00;5011385;28;20213;-72
2021/12/27 04:42:38;;;;;;;25.17;12.48;;;;;;;5.11;85.00;94144.81;5010728;28;20711;-71
2021/12/27 04:45:06;;;;;;;23.23;12.23;;;;;;;5.07;84.67;94137.69;5010479;28;20205;-71
2021/12/27 04:47:33;;;;;;;28.38;13.10;;;;;;;5.12;84.96;94151.00;5010877;28;20668;-71
2021/12/27 04:50:00;;;;;;;29.38;14.80;;;;;;;5.26;85.20;94146.34;5011077;28;20209;-72
2021/12/27 04:52:29;;;;;;;22.80;11.70;;;;;;;5.21;84.46;94135.72;5011225;28;20204;-71
2021/12/27 04:54:56;;;;;;;22.58;11.27;;;;;;;5.34;84.91;94142.91;5010314;28;20225;-72
2021/12/27 04:57:22;;;;;;;21.20;11.68;;;;;;;5.22;84.25;94150.75;5010927;28;20216;-71
2021/12/27 04:59:49;;;;;;;17.52;10.77;;;;;;;5.29;84.27;94151.13;5011147;28;20216;-71
2021/12/27 05:02:16;;;;;;;24.80;9.93;;;;;;;5.16;84.50;94147.41;5010657;28;20225;-72
2021/12/27 05:04:43;;;;;;;17.52;10.85;;;;;;;5.23;84.62;94152.31;5011052;28;20215;-71
2021/12/27 05:07:10;;;;;;;28.92;11.45;;;;;;;5.30;84.58;94152.72;5010890;28;20212;-71
2021/12/27 05:09:39;;;;;;;19.10;11.93;;;;;;;5.33;83.94;94168.19;5010673;28;20434;-71
2021/12/27 05:12:07;;;;;;;21.35;10.43;;;;;;;5.25;84.26;94144.75;5010807;28;20216;-71
2021/12/27 05:14:34;;;;;;;16.98;9.00;;;;;;;5.29;84.53;94148.44;5010173;28;20219;-71
2021/12/27 05:17:00;;;;;;;21.73;12.07;;;;;;;5.23;84.30;94155.00;5010638;28;20279;-71
2021/12/27 05:19:27;;;;;;;19.20;10.10;;;;;;;5.22;84.54;94148.06;5010383;28;20201;-71
2021/12/27 05:21:54;;;;;;;22.52;10.55;;;;;;;5.42;83.78;94141.41;5010350;28;20256;-71
2021/12/27 05:24:22;;;;;;;18.85;10.82;;;;;;;5.46;84.02;94145.06;5010482;28;20208;-72
2021/12/27 05:26:50;;;;;;;21.25;11.27;;;;;;;5.33;84.05;94146.69;5010267;28;20208;-72
2021/12/27 05:29:17;;;;;;;19.67;9.07;;;;;;;5.27;84.16;94153.31;5010117;28;20292;-72
2021/12/27 05:31:44;;;;;;;20.63;10.65;;;;;;;5.20;84.21;94147.56;5010440;28;20207;-71
2021/12/27 05:34:14;;;;;;;19.17;10.60;;;;;;;5.36;84.33;94151.47;5010011;28;20220;-72
2021/12/27 05:36:42;;;;;;;21.63;10.25;;;;;;;5.51;83.56;94143.03;5009771;28;20204;-71
2021/12/27 05:39:09;;;;;;;21.00;9.68;;;;;;;5.39;83.55;94158.91;5009998;28;20232;-72
2021/12/27 05:41:36;;;;;;;20.48;11.27;;;;;;;5.43;83.76;94151.84;5009675;28;20963;-72
2021/12/27 05:44:04;;;;;;;16.45;9.73;;;;;;;5.45;83.40;94146.16;5009953;28;20212;-71
2021/12/27 05:46:31;;;;;;;24.17;15.18;;;;;;;5.33;83.87;94152.88;5009288;28;20216;-71
2021/12/27 05:48:58;;;;;;;18.08;10.68;;;;;;;5.40;84.23;94157.81;5009813;28;20677;-71
2021/12/27 05:51:25;;;;;;;16.73;9.80;;;;;;;5.74;83.45;94151.06;5010026;28;20201;-72
2021/12/27 05:53:52;;;;;;;18.13;9.68;;;;;;;5.61;83.14;94156.19;5010070;28;20565;-72
2021/12/27 05:56:19;;;;;;;20.52;11.18;;;;;;;5.59;83.00;94160.31;5010034;28;20213;-72
2021/12/27 05:58:46;;;;;;;19.20;9.45;;;;;;;5.53;83.07;94132.78;5009420;28;20531;-72
2021/12/27 06:01:15;;;;;;;21.95;11.45;;;;;;;5.46;83.33;94150.44;5009895;28;20236;-71
2021/12/27 06:03:42;;;;;;;19.67;11.25;;;;;;;5.48;83.38;94143.63;5009821;28;20730;-71
2021/12/27 06:06:09;;;;;;;17.67;10.18;;;;;;;5.50;83.39;94144.13;5009611;28;20208;-71
2021/12/27 06:08:36;;;;;;;25.13;10.82;;;;;;;5.60;83.46;94141.19;5009679;28;20239;-71
2021/12/27 06:11:03;;;;;;;26.10;16.13;;;;;;;5.55;82.72;94146.69;5009776;28;20208;-72
2021/12/27 06:13:30;;;;;;;21.67;11.52;;;;;;;5.48;83.57;94149.00;5009787;28;20525;-72
2021/12/27 06:15:57;;;;;;;22.20;12.15;;;;;;;5.30;84.09;94139.28;5009522;28;20204;-72
2021/12/27 06:18:26;;;;;;;17.77;8.93;;;;;;;5.17;84.11;94138.25;5009338;28;20578;-72
2021/12/27 06:20:53;;;;;;;20.45;9.48;;;;;;;5.30;83.84;94152.72;5009531;28;20689;-72
2021/12/27 06:23:20;;;;;;;18.27;9.05;;;;;;;5.23;84.37;94136.22;5009432;28;20220;-72
2021/12/27 06:25:47;;;;;;;19.58;10.25;;;;;;;5.32;84.19;94145.16;5009430;28;20204;-72
2021/12/27 06:28:14;;;;;;;19.13;9.65;;;;;;;5.49;83.62;94144.44;5009271;28;20556;-72
2021/12/27 06:30:42;;;;;;;21.45;10.25;;;;;;;5.56;83.79;94142.91;5009197;28;20668;-72
2021/12/27 06:33:10;;;;;;;21.02;10.70;;;;;;;5.47;83.32;94157.38;5009316;28;20255;-72
2021/12/27 06:35:38;;;;;;;21.35;8.38;;;;;;;5.43;83.33;94149.16;5009626;28;20229;-71
2021/12/27 06:38:05;;;;;;;18.05;9.70;;;;;;;5.18;84.14;94125.63;5009249;28;20236;-71
2021/12/27 06:40:32;;;;;;;21.77;10.18;;;;;;;5.30;84.41;94123.16;5008952;28;20263;-72
2021/12/27 06:43:00;;;;;;;16.50;6.57;;;;;;;5.30;84.10;94105.16;5009617;28;20220;-72
2021/12/27 06:45:27;;;;;;;16.15;9.73;;;;;;;5.34;84.27;94118.75;5009049;28;20742;-73
2021/12/27 06:47:54;;;;;;;17.67;11.02;;;;;;;5.53;84.40;94129.28;5008828;28;20796;-71
2021/12/27 06:50:23;;;;;;;19.58;10.43;;;;;;;5.55;83.29;94116.34;5009146;28;20204;-71
2021/12/27 06:52:52;;;;;;;24.35;10.55;;;;;;;5.71;83.17;94125.59;5013061;28;20568;-72
2021/12/27 06:55:19;;;;;;;22.42;11.68;;;;;;;5.84;82.84;94130.09;5013312;28;20208;-71
2021/12/27 06:57:45;;;;;;;21.77;11.30;;;;;;;6.03;81.97;94116.41;5013185;28;20201;-71
2021/12/27 07:00:14;;;;;;;10.90;6.20;;;;;;;6.01;81.58;94102.53;5012964;28;20201;-71
2021/12/27 07:02:42;;;;;;;20.52;9.95;;;;;;;6.12;81.35;94092.25;5013137;28;20573;-71
2021/12/27 07:05:10;;;;;;;18.58;7.75;;;;;;;6.54;79.78;94101.53;5013140;28;20205;-71
2021/12/27 07:07:37;;;;;;;13.48;5.95;;;;;;;6.40;80.27;94110.53;5012989;28;20615;-71
2021/12/27 07:10:07;;;;;;;7.38;4.30;;;;;;;6.15;80.95;94100.47;5013119;28;20201;-73
2021/12/27 07:12:34;;;;;;;13.57;7.50;;;;;;;6.05;81.49;94109.63;5012709;28;20680;-72
2021/12/27 07:15:01;;;;;;;16.10;9.85;;;;;;;6.21;81.16;94111.91;5012745;28;20495;-72
2021/12/27 07:17:28;;;;;;;18.48;9.02;;;;;;;6.34;80.92;94121.72;5012797;28;20197;-72
2021/12/27 07:19:55;;;;;;;13.20;7.45;;;;;;;6.45;80.48;94100.72;5012394;28;20200;-72
2021/12/27 07:22:22;;;;;;;13.90;7.30;;;;;;;6.47;79.96;94101.19;5012546;28;20244;-73
2021/12/27 07:24:49;;;;;;;13.80;7.07;;;;;;;6.63;80.01;94094.25;5012837;28;20209;-72
2021/12/27 07:27:17;;;;;;;16.08;8.55;;;;;;;6.72;79.56;94105.81;5012318;28;20205;-72
2021/12/27 07:29:44;;;;;;;16.08;8.40;;;;;;;6.79;79.41;94111.53;5012784;28;20216;-73
2021/12/27 07:32:11;;;;;;;18.38;11.65;;;;;;;6.87;79.45;94113.41;5012294;28;20216;-72
2021/12/27 07:34:39;;;;;;;17.83;10.98;;;;;;;6.91;79.69;94109.00;5012591;28;20205;-71
2021/12/27 07:37:06;;;;;;;17.08;11.25;;;;;;;6.97;79.11;94102.31;5012245;28;20221;-72
2021/12/27 07:39:33;;;;;;;20.90;12.52;;;;;;;6.96;78.74;94105.34;5012159;28;20212;-71
2021/12/27 07:42:00;;;;;;;15.25;9.05;;;;;;;6.79;79.10;94108.81;5011355;28;20428;-71
2021/12/27 07:44:28;;;;;;;14.30;8.05;;;;;;;6.81;78.94;94113.91;5012528;28;20204;-71
2021/12/27 07:46:55;;;;;;;13.75;8.88;;;;;;;6.80;79.50;94096.16;5012218;28;20353;-72
2021/12/27 07:49:22;;;;;;;16.92;8.48;;;;;;;6.86;79.38;94095.66;5011783;28;20213;-71
2021/12/27 07:51:49;;;;;;;15.43;8.05;;;;;;;6.97;78.77;94085.41;5011234;28;20205;-71
2021/12/27 07:54:16;;;;;;;12.93;8.00;;;;;;;7.01;78.81;94097.88;5011814;28;20283;-72
2021/12/27 07:56:43;;;;;;;17.77;8.55;;;;;;;7.02;78.69;94104.84;5011554;28;20726;-71
2021/12/27 07:59:10;;;;;;;16.88;9.73;;;;;;;6.96;78.78;94106.16;5011851;28;20691;-71
2021/12/27 08:01:40;;;;;;;16.02;7.28;;;;;;;6.96;78.80;94094.59;5010838;28;20255;-71
2021/12/27 08:04:08;;;;;;;11.30;6.57;;;;;;;7.06;78.25;94097.75;5011755;28;20186;-71
2021/12/27 08:06:36;;;;;;;14.48;6.53;;;;;;;7.12;77.97;94072.22;5011255;28;20563;-71
2021/12/27 08:09:04;;;;;;;15.30;7.47;;;;;;;7.24;77.94;94068.09;5011258;28;20656;-72
2021/12/27 08:11:31;;;;;;;11.02;6.85;;;;;;;7.37;77.81;94077.88;5011987;28;20579;-71
2021/12/27 08:13:59;;;;;;;12.27;7.97;;;;;;;7.28;78.13;94087.88;5011868;28;20593;-72
2021/12/27 08:16:27;;;;;;;11.85;6.07;;;;;;;7.18;78.47;94096.28;5011202;28;20308;-72
2021/12/27 08:18:56;;;;;;;6.43;3.83;;;;;;;7.25;77.95;94088.50;5011397;28;20201;-72
2021/12/27 08:21:25;;;;;;;12.57;7.80;;;;;;;7.41;77.57;94074.22;5011092;28;20205;-72
2021/12/27 08:23:53;;;;;;;13.18;8.20;;;;;;;7.48;77.13;94062.97;5011314;28;20217;-71
2021/12/27 08:26:21;;;;;;;16.08;9.05;;;;;;;7.74;76.90;94095.22;5011246;28;20550;-71
2021/12/27 08:28:51;;;;;;;13.70;8.68;;;;;;;7.87;76.42;94079.94;5011152;28;20247;-71
2021/12/27 08:31:18;;;;;;;16.60;10.45;;;;;;;7.92;76.38;94066.28;5011125;28;20540;-71
2021/12/27 08:33:46;;;;;;;17.98;10.50;;;;;;;8.03;76.14;94083.69;5011077;28;20189;-71
2021/12/27 08:36:14;;;;;;;15.30;9.45;;;;;;;8.02;76.04;94072.09;5011174;28;20216;-71
2021/12/27 08:38:44;;;;;;;26.40;15.15;;;;;;;7.83;76.57;94064.41;5011229;28;20232;-72
2021/12/27 08:41:11;;;;;;;18.25;10.50;;;;;;;8.05;76.30;94089.56;5010859;28;20256;-70
2021/12/27 08:43:38;;;;;;;16.73;10.50;;;;;;;8.16;75.69;94093.47;5010789;28;20557;-71
2021/12/27 08:46:05;;;;;;;18.85;10.57;;;;;;;8.21;75.62;94085.16;5011123;28;20208;-71
2021/12/27 08:48:32;;;;;;;16.35;10.60;;;;;;;8.43;75.23;94086.81;5011071;28;20201;-72
2021/12/27 08:50:59;;;;;;;16.88;10.90;;;;;;;8.42;74.80;94069.84;5011470;28;20201;-72
2021/12/27 08:53:27;;;;;;;17.80;10.68;;;;;;;8.38;74.66;94047.31;5010681;28;20724;-72
2021/12/27 08:55:55;;;;;;;18.45;10.68;;;;;;;8.36;74.81;94038.75;5011312;28;20601;-73
2021/12/27 08:58:22;;;;;;;17.23;10.65;;;;;;;8.50;74.58;94047.38;5011382;28;20201;-74
2021/12/27 09:00:49;;;;;;;25.20;12.80;;;;;;;8.58;74.67;94050.38;5011034;28;20201;-72
2021/12/27 09:03:16;;;;;;;16.02;9.93;;;;;;;8.57;73.89;94032.59;5010498;28;20225;-74
2021/12/27 09:05:43;;;;;;;15.50;10.57;;;;;;;8.64;73.85;94033.63;5010748;28;20205;-72
2021/12/27 09:08:11;;;;;;;13.65;8.88;;;;;;;8.68;73.17;94022.97;5010809;28;20200;-72
2021/12/27 09:10:39;;;;;;;15.27;10.68;;;;;;;8.75;73.42;94042.91;5010720;28;20682;-72
2021/12/27 09:13:06;;;;;;;18.10;11.15;;;;;;;8.80;73.24;94036.53;5010365;28;20607;-72
2021/12/27 09:15:33;;;;;;;17.15;10.65;;;;;;;8.68;73.63;94006.78;5009870;28;20209;-72
2021/12/27 09:18:00;;;;;;;17.05;10.82;;;;;;;8.70;73.33;94009.94;5010476;28;20196;-72
2021/12/27 09:20:28;;;;;;;20.00;11.52;;;;;;;9.01;73.15;94021.09;5010640;28;20208;-72
2021/12/27 09:22:55;;;;;;;17.20;11.70;;;;;;;9.20;72.67;94007.88;5010248;28;20374;-71
2021/12/27 09:25:21;;;;;;;19.75;11.82;;;;;;;9.26;71.90;93994.94;5010417;28;20460;-72
2021/12/27 09:27:50;;;;;;;18.48;11.07;;;;;;;9.35;71.90;93992.13;5010304;28;20259;-71
2021/12/27 09:30:17;;;;;;;17.38;11.57;;;;;;;9.58;71.57;93990.59;5010469;28;20205;-72
2021/12/27 09:32:45;;;;;;;20.60;11.32;;;;;;;9.61;70.66;93979.91;5010198;28;20201;-72
2021/12/27 09:35:12;;;;;;;16.98;11.35;;;;;;;9.56;70.65;93960.41;5009625;28;20513;-72
2021/12/27 09:37:39;;;;;;;18.23;11.32;;;;;;;9.57;71.21;93962.75;5009859;28;20225;-71
2021/12/27 09:40:07;;;;;;;18.45;10.60;;;;;;;9.80;70.61;93990.16;5010129;28;20201;-71
2021/12/27 09:42:35;;;;;;;17.65;11.27;;;;;;;9.79;70.79;93972.34;5009900;28;20271;-70
2021/12/27 09:45:05;;;;;;;13.88;9.50;;;;;;;9.85;70.00;93941.25;5010303;28;20307;-72
2021/12/27 09:47:32;;;;;;;29.60;13.48;;;;;;;10.19;68.96;93955.44;5010093;28;20196;-70
2021/12/27 09:50:00;;;;;;;21.80;11.10;;;;;;;10.50;67.55;93943.97;5009784;28;20611;-70
2021/12/27 09:52:27;;;;;;;15.68;8.88;;;;;;;10.49;67.26;93937.78;5010026;28;20212;-72
2021/12/27 09:54:54;;;;;;;13.70;8.30;;;;;;;10.22;68.52;93941.22;5009436;28;20225;-72
2021/12/27 09:57:21;;;;;;;14.88;9.48;;;;;;;9.99;68.88;93952.50;5010095;28;20272;-72
2021/12/27 09:59:48;;;;;;;12.32;9.00;;;;;;;9.91;69.70;93950.72;5010233;28;20208;-72
2021/12/27 10:02:16;;;;;;;13.32;10.00;;;;;;;10.14;68.97;93947.50;5009567;28;20232;-72
2021/12/27 10:04:45;;;;;;;14.13;9.20;;;;;;;10.44;68.42;93946.13;5009535;28;20228;-72
2021/12/27 10:07:20;;;;;;;16.25;10.27;;;;;;;10.37;68.01;93931.59;5008708;28;20315;-72
2021/12/27 10:09:53;;;;;;;11.10;7.28;;;;;;;10.02;69.12;93917.78;5009709;28;20271;-72
2021/12/27 10:12:21;;;;;;;19.27;9.88;;;;;;;9.83;69.59;93930.00;5009564;28;20327;-72
2021/12/27 10:14:48;;;;;;;15.00;9.80;;;;;;;9.94;69.27;93960.06;5009796;28;20205;-71
2021/12/27 10:17:16;;;;;;;19.55;10.10;;;;;;;10.18;68.65;93943.00;5008974;28;20205;-71
2021/12/27 10:19:43;;;;;;;12.13;7.30;;;;;;;10.33;67.52;93935.00;5008888;28;20205;-72
2021/12/27 10:22:12;;;;;;;9.25;5.43;;;;;;;10.78;65.74;93927.72;5009076;28;20228;-72
2021/12/27 10:24:39;;;;;;;9.68;5.78;;;;;;;10.91;65.65;93948.22;5009433;28;20231;-71
2021/12/27 10:27:07;;;;;;;12.48;7.15;;;;;;;10.56;66.72;93937.97;5008741;28;20205;-71
2021/12/27 10:29:35;;;;;;;14.63;7.47;;;;;;;10.72;66.68;93945.34;5009299;28;20615;-73
2021/12/27 10:32:06;;;;;;;18.60;11.13;;;;;;;10.80;66.82;93955.25;5008589;28;20208;-71
2021/12/27 10:34:36;;;;;;;16.58;9.55;;;;;;;10.91;66.59;93948.22;5008844;28;20193;-71
2021/12/27 10:37:09;;;;;;;15.27;8.13;;;;;;;10.75;66.56;93939.25;5009007;28;20225;-71
2021/12/27 10:39:52;;;;;;;22.08;11.98;;;;;;;10.69;66.50;93917.81;5009195;28;20193;-70
2021/12/27 10:42:22;;;;;;;16.17;9.32;;;;;;;10.88;66.13;93921.81;5008914;28;20236;-71
2021/12/27 10:44:51;;;;;;;13.98;6.40;;;;;;;11.10;64.64;93906.88;5008396;28;20695;-70
2021/12/27 10:47:36;;;;;;;8.93;3.60;;;;;;;11.65;62.61;93919.50;5008350;28;20263;-71
2021/12/27 10:50:12;;;;;;;4.32;1.73;;;;;;;12.46;59.09;93913.19;5008958;28;20200;-71
2021/12/27 10:52:49;;;;;;;4.72;2.47;;;;;;;12.82;58.96;93903.84;5009331;28;20188;-71
2021/12/27 10:55:19;;;;;;;4.45;2.38;;;;;;;12.98;58.00;93913.84;5009044;28;20204;-71
2021/12/27 10:57:46;;;;;;;10.18;5.82;;;;;;;13.15;58.11;93902.53;5008258;28;20247;-71
2021/12/27 11:00:27;;;;;;;5.93;3.50;;;;;;;13.31;57.49;93908.66;5009229;28;20220;-72
2021/12/27 11:02:54;;;;;;;3.47;1.90;;;;;;;13.45;56.69;93914.34;5009357;28;20469;-72
2021/12/27 11:05:26;;;;;;;3.30;1.45;;;;;;;13.63;55.16;93892.06;5008738;28;20216;-72
2021/12/27 11:07:54;;;;;;;3.72;2.15;;;;;;;13.88;55.05;93906.88;5008682;28;20552;-72
2021/12/27 11:10:22;;;;;;;8.43;1.45;;;;;;;14.02;54.01;93898.91;5008869;28;20647;-72
2021/12/27 11:12:50;;;;;;;2.92;1.30;;;;;;;13.98;54.08;93880.94;5008925;28;20641;-72
2021/12/27 11:15:17;;;;;;;3.33;1.48;;;;;;;13.77;54.41;93892.31;5008787;28;20671;-73
2021/12/27 11:17:45;;;;;;;4.03;1.50;;;;;;;13.75;54.56;93889.16;5009016;28;20480;-72
2021/12/27 11:20:14;;;;;;;4.68;1.25;;;;;;;13.64;54.85;93877.31;5008721;28;20232;-72
2021/12/27 11:22:45;;;;;;;2.97;1.73;;;;;;;13.65;55.15;93876.97;5008834;28;20233;-72
2021/12/27 11:25:26;;;;;;;5.95;1.50;;;;;;;13.60;55.23;93869.09;5009040;28;20190;-73
2021/12/27 11:27:54;;;;;;;1.83;1.00;;;;;;;13.61;54.91;93894.38;5008654;28;20200;-72
2021/12/27 11:30:23;;;;;;;6.10;2.60;;;;;;;13.60;55.22;93881.91;5008958;28;20534;-72